sensor_id;sensor_type;location;lat;lon;timestamp;P1;durP1;ratioP1;P2;durP2;ratioP2
45077;SDS011;60508;42.622;25.416;2023-04-26T00:00:04;3.60;;;2.15;;
45077;SDS011;60508;42.622;25.416;2023-04-26T00:02:33;3.70;;;2.10;;
45077;SDS011;60508;42.622;25.416;2023-04-26T00:05:02;4.82;;;2.33;;
45077;SDS011;60508;42.622;25.416;2023-04-26T00:07:30;2.88;;;2.30;;
45077;SDS011;60508;42.622;25.416;2023-04-26T00:09:55;5.13;;;2.75;;
45077;SDS011;60508;42.622;25.416;2023-04-26T00:12:22;2.90;;;2.70;;
45077;SDS011;60508;42.622;25.416;2023-04-26T00:14:48;6.55;;;3.50;;
45077;SDS011;60508;42.622;25.416;2023-04-26T00:17:14;3.13;;;2.83;;
45077;SDS011;60508;42.622;25.416;2023-04-26T00:19:40;3.13;;;2.92;;
45077;SDS011;60508;42.622;25.416;2023-04-26T00:22:06;3.10;;;2.85;;
45077;SDS011;60508;42.622;25.416;2023-04-26T00:24:33;3.22;;;2.92;;
45077;SDS011;60508;42.622;25.416;2023-04-26T00:27:00;2.50;;;2.30;;
45077;SDS011;60508;42.622;25.416;2023-04-26T00:29:30;2.35;;;2.17;;
45077;SDS011;60508;42.622;25.416;2023-04-26T00:31:55;6.45;;;2.55;;
45077;SDS011;60508;42.622;25.416;2023-04-26T00:34:22;2.17;;;2.08;;
45077;SDS011;60508;42.622;25.416;2023-04-26T00:36:50;2.70;;;2.50;;
45077;SDS011;60508;42.622;25.416;2023-04-26T00:39:15;2.47;;;2.15;;
45077;SDS011;60508;42.622;25.416;2023-04-26T00:41:42;2.42;;;2.22;;
45077;SDS011;60508;42.622;25.416;2023-04-26T00:44:08;2.13;;;1.92;;
45077;SDS011;60508;42.622;25.416;2023-04-26T00:46:33;4.85;;;2.53;;
45077;SDS011;60508;42.622;25.416;2023-04-26T00:49:00;2.33;;;2.13;;
45077;SDS011;60508;42.622;25.416;2023-04-26T00:51:26;1.73;;;1.63;;
45077;SDS011;60508;42.622;25.416;2023-04-26T00:53:53;2.33;;;2.13;;
45077;SDS011;60508;42.622;25.416;2023-04-26T00:56:19;2.15;;;1.95;;
45077;SDS011;60508;42.622;25.416;2023-04-26T00:58:46;2.05;;;1.95;;
45077;SDS011;60508;42.622;25.416;2023-04-26T01:01:13;2.10;;;1.90;;
45077;SDS011;60508;42.622;25.416;2023-04-26T01:03:40;4.63;;;2.28;;
45077;SDS011;60508;42.622;25.416;2023-04-26T01:06:06;2.60;;;2.35;;
45077;SDS011;60508;42.622;25.416;2023-04-26T01:08:36;6.85;;;1.95;;
45077;SDS011;60508;42.622;25.416;2023-04-26T01:11:03;2.47;;;1.83;;
45077;SDS011;60508;42.622;25.416;2023-04-26T01:13:29;2.53;;;2.33;;
45077;SDS011;60508;42.622;25.416;2023-04-26T01:15:56;1.98;;;1.88;;
45077;SDS011;60508;42.622;25.416;2023-04-26T01:18:23;2.17;;;1.98;;
45077;SDS011;60508;42.622;25.416;2023-04-26T01:20:50;2.55;;;2.30;;
45077;SDS011;60508;42.622;25.416;2023-04-26T01:23:17;2.83;;;2.50;;
45077;SDS011;60508;42.622;25.416;2023-04-26T01:25:43;3.35;;;3.05;;
45077;SDS011;60508;42.622;25.416;2023-04-26T01:28:10;3.53;;;3.22;;
45077;SDS011;60508;42.622;25.416;2023-04-26T01:30:36;3.90;;;3.60;;
45077;SDS011;60508;42.622;25.416;2023-04-26T01:33:02;5.15;;;3.45;;
45077;SDS011;60508;42.622;25.416;2023-04-26T01:35:28;3.65;;;3.35;;
45077;SDS011;60508;42.622;25.416;2023-04-26T01:37:55;3.75;;;3.33;;
45077;SDS011;60508;42.622;25.416;2023-04-26T01:40:21;5.32;;;3.83;;
45077;SDS011;60508;42.622;25.416;2023-04-26T01:42:46;5.15;;;3.15;;
45077;SDS011;60508;42.622;25.416;2023-04-26T01:45:13;4.80;;;3.67;;
45077;SDS011;60508;42.622;25.416;2023-04-26T01:47:57;6.28;;;3.33;;
45077;SDS011;60508;42.622;25.416;2023-04-26T01:50:23;3.30;;;3.10;;
45077;SDS011;60508;42.622;25.416;2023-04-26T01:52:49;3.00;;;2.80;;
45077;SDS011;60508;42.622;25.416;2023-04-26T01:55:17;4.00;;;2.90;;
45077;SDS011;60508;42.622;25.416;2023-04-26T01:57:43;3.80;;;3.20;;
45077;SDS011;60508;42.622;25.416;2023-04-26T02:00:09;3.20;;;2.90;;
45077;SDS011;60508;42.622;25.416;2023-04-26T02:02:39;3.70;;;3.40;;
45077;SDS011;60508;42.622;25.416;2023-04-26T02:05:07;3.22;;;3.00;;
45077;SDS011;60508;42.622;25.416;2023-04-26T02:07:37;3.28;;;3.03;;
45077;SDS011;60508;42.622;25.416;2023-04-26T02:10:03;3.47;;;3.17;;
45077;SDS011;60508;42.622;25.416;2023-04-26T02:12:29;2.70;;;2.50;;
45077;SDS011;60508;42.622;25.416;2023-04-26T02:14:56;3.97;;;3.65;;
45077;SDS011;60508;42.622;25.416;2023-04-26T02:17:25;3.65;;;3.35;;
45077;SDS011;60508;42.622;25.416;2023-04-26T02:19:52;3.28;;;3.00;;
45077;SDS011;60508;42.622;25.416;2023-04-26T02:22:18;3.00;;;2.80;;
45077;SDS011;60508;42.622;25.416;2023-04-26T02:24:45;4.07;;;3.70;;
45077;SDS011;60508;42.622;25.416;2023-04-26T02:27:11;3.35;;;3.05;;
45077;SDS011;60508;42.622;25.416;2023-04-26T02:29:38;3.65;;;3.35;;
45077;SDS011;60508;42.622;25.416;2023-04-26T02:32:04;3.78;;;3.15;;
45077;SDS011;60508;42.622;25.416;2023-04-26T02:34:30;3.92;;;3.35;;
45077;SDS011;60508;42.622;25.416;2023-04-26T02:36:56;5.07;;;3.30;;
45077;SDS011;60508;42.622;25.416;2023-04-26T02:39:22;4.57;;;3.38;;
45077;SDS011;60508;42.622;25.416;2023-04-26T02:41:49;4.25;;;3.70;;
45077;SDS011;60508;42.622;25.416;2023-04-26T02:44:15;5.22;;;4.03;;
45077;SDS011;60508;42.622;25.416;2023-04-26T02:46:42;3.92;;;3.63;;
45077;SDS011;60508;42.622;25.416;2023-04-26T02:49:09;6.40;;;3.72;;
45077;SDS011;60508;42.622;25.416;2023-04-26T02:51:35;5.30;;;4.25;;
45077;SDS011;60508;42.622;25.416;2023-04-26T02:54:01;5.22;;;3.80;;
45077;SDS011;60508;42.622;25.416;2023-04-26T02:56:27;4.10;;;3.70;;
45077;SDS011;60508;42.622;25.416;2023-04-26T02:58:53;4.63;;;4.15;;
45077;SDS011;60508;42.622;25.416;2023-04-26T03:01:19;8.85;;;4.57;;
45077;SDS011;60508;42.622;25.416;2023-04-26T03:03:46;8.63;;;4.07;;
45077;SDS011;60508;42.622;25.416;2023-04-26T03:06:12;3.90;;;3.60;;
45077;SDS011;60508;42.622;25.416;2023-04-26T03:08:38;5.28;;;4.75;;
45077;SDS011;60508;42.622;25.416;2023-04-26T03:11:04;5.25;;;4.75;;
45077;SDS011;60508;42.622;25.416;2023-04-26T03:13:31;6.85;;;3.92;;
45077;SDS011;60508;42.622;25.416;2023-04-26T03:15:57;5.03;;;4.10;;
45077;SDS011;60508;42.622;25.416;2023-04-26T03:18:23;6.82;;;4.57;;
45077;SDS011;60508;42.622;25.416;2023-04-26T03:20:50;4.93;;;3.88;;
45077;SDS011;60508;42.622;25.416;2023-04-26T03:23:16;5.07;;;3.20;;
45077;SDS011;60508;42.622;25.416;2023-04-26T03:25:42;5.85;;;4.28;;
45077;SDS011;60508;42.622;25.416;2023-04-26T03:28:08;4.25;;;3.65;;
45077;SDS011;60508;42.622;25.416;2023-04-26T03:30:34;7.95;;;3.78;;
45077;SDS011;60508;42.622;25.416;2023-04-26T03:33:00;4.18;;;3.08;;
45077;SDS011;60508;42.622;25.416;2023-04-26T03:35:27;5.03;;;3.58;;
45077;SDS011;60508;42.622;25.416;2023-04-26T03:37:53;9.82;;;3.70;;
45077;SDS011;60508;42.622;25.416;2023-04-26T03:40:18;6.82;;;2.75;;
45077;SDS011;60508;42.622;25.416;2023-04-26T03:42:45;3.15;;;2.25;;
45077;SDS011;60508;42.622;25.416;2023-04-26T03:45:11;3.65;;;2.70;;
45077;SDS011;60508;42.622;25.416;2023-04-26T03:47:37;5.88;;;5.07;;
45077;SDS011;60508;42.622;25.416;2023-04-26T03:50:04;11.32;;;7.50;;
45077;SDS011;60508;42.622;25.416;2023-04-26T03:52:31;2.95;;;2.75;;
45077;SDS011;60508;42.622;25.416;2023-04-26T03:54:57;5.32;;;3.30;;
45077;SDS011;60508;42.622;25.416;2023-04-26T03:57:23;11.13;;;2.72;;
45077;SDS011;60508;42.622;25.416;2023-04-26T03:59:49;8.25;;;3.80;;
45077;SDS011;60508;42.622;25.416;2023-04-26T04:02:15;5.50;;;4.45;;
45077;SDS011;60508;42.622;25.416;2023-04-26T04:04:42;6.55;;;5.40;;
45077;SDS011;60508;42.622;25.416;2023-04-26T04:07:09;6.40;;;5.18;;
45077;SDS011;60508;42.622;25.416;2023-04-26T04:09:35;5.00;;;4.22;;
45077;SDS011;60508;42.622;25.416;2023-04-26T04:12:02;3.28;;;3.08;;
45077;SDS011;60508;42.622;25.416;2023-04-26T04:14:28;3.67;;;3.38;;
45077;SDS011;60508;42.622;25.416;2023-04-26T04:16:54;8.93;;;6.75;;
45077;SDS011;60508;42.622;25.416;2023-04-26T04:19:20;6.78;;;5.25;;
45077;SDS011;60508;42.622;25.416;2023-04-26T04:21:46;7.32;;;5.30;;
45077;SDS011;60508;42.622;25.416;2023-04-26T04:24:12;5.43;;;4.32;;
45077;SDS011;60508;42.622;25.416;2023-04-26T04:26:39;7.43;;;5.50;;
45077;SDS011;60508;42.622;25.416;2023-04-26T04:29:05;3.72;;;3.45;;
45077;SDS011;60508;42.622;25.416;2023-04-26T04:34:06;4.07;;;3.53;;
45077;SDS011;60508;42.622;25.416;2023-04-26T04:36:37;6.43;;;3.78;;
45077;SDS011;60508;42.622;25.416;2023-04-26T04:39:05;9.80;;;5.07;;
45077;SDS011;60508;42.622;25.416;2023-04-26T04:41:38;3.80;;;3.50;;
45077;SDS011;60508;42.622;25.416;2023-04-26T04:44:12;9.52;;;3.42;;
45077;SDS011;60508;42.622;25.416;2023-04-26T04:46:40;5.88;;;5.28;;
45077;SDS011;60508;42.622;25.416;2023-04-26T04:49:07;4.28;;;3.88;;
45077;SDS011;60508;42.622;25.416;2023-04-26T04:51:34;5.00;;;4.30;;
45077;SDS011;60508;42.622;25.416;2023-04-26T04:54:13;4.05;;;3.50;;
45077;SDS011;60508;42.622;25.416;2023-04-26T04:56:40;3.85;;;3.38;;
45077;SDS011;60508;42.622;25.416;2023-04-26T04:59:08;4.97;;;3.83;;
45077;SDS011;60508;42.622;25.416;2023-04-26T05:01:34;3.88;;;3.38;;
45077;SDS011;60508;42.622;25.416;2023-04-26T05:04:05;4.57;;;4.18;;
45077;SDS011;60508;42.622;25.416;2023-04-26T05:06:32;5.15;;;4.68;;
45077;SDS011;60508;42.622;25.416;2023-04-26T05:08:59;4.93;;;4.30;;
45077;SDS011;60508;42.622;25.416;2023-04-26T05:11:26;4.28;;;3.88;;
45077;SDS011;60508;42.622;25.416;2023-04-26T05:13:52;4.88;;;4.38;;
45077;SDS011;60508;42.622;25.416;2023-04-26T05:16:19;7.28;;;5.30;;
45077;SDS011;60508;42.622;25.416;2023-04-26T05:18:45;7.80;;;4.70;;
45077;SDS011;60508;42.622;25.416;2023-04-26T05:21:11;8.68;;;6.22;;
45077;SDS011;60508;42.622;25.416;2023-04-26T05:23:37;8.57;;;5.47;;
45077;SDS011;60508;42.622;25.416;2023-04-26T05:26:03;5.40;;;4.82;;
45077;SDS011;60508;42.622;25.416;2023-04-26T05:28:49;5.80;;;5.15;;
45077;SDS011;60508;42.622;25.416;2023-04-26T05:31:18;9.10;;;5.68;;
45077;SDS011;60508;42.622;25.416;2023-04-26T05:34:16;8.73;;;7.28;;
45077;SDS011;60508;42.622;25.416;2023-04-26T05:36:48;6.68;;;5.55;;
45077;SDS011;60508;42.622;25.416;2023-04-26T05:39:14;8.13;;;6.13;;
45077;SDS011;60508;42.622;25.416;2023-04-26T05:41:40;6.45;;;5.85;;
45077;SDS011;60508;42.622;25.416;2023-04-26T05:44:07;7.25;;;5.63;;
45077;SDS011;60508;42.622;25.416;2023-04-26T05:46:33;5.13;;;4.63;;
45077;SDS011;60508;42.622;25.416;2023-04-26T05:49:01;6.60;;;4.40;;
45077;SDS011;60508;42.622;25.416;2023-04-26T05:51:27;5.60;;;4.85;;
45077;SDS011;60508;42.622;25.416;2023-04-26T05:53:53;6.18;;;5.03;;
45077;SDS011;60508;42.622;25.416;2023-04-26T05:56:19;5.90;;;5.25;;
45077;SDS011;60508;42.622;25.416;2023-04-26T05:58:46;4.97;;;4.18;;
45077;SDS011;60508;42.622;25.416;2023-04-26T06:01:13;5.03;;;3.40;;
45077;SDS011;60508;42.622;25.416;2023-04-26T06:03:39;4.15;;;3.83;;
45077;SDS011;60508;42.622;25.416;2023-04-26T06:06:05;9.30;;;5.10;;
45077;SDS011;60508;42.622;25.416;2023-04-26T06:08:33;4.80;;;4.32;;
45077;SDS011;60508;42.622;25.416;2023-04-26T06:10:59;6.93;;;5.05;;
45077;SDS011;60508;42.622;25.416;2023-04-26T06:13:26;6.30;;;5.70;;
45077;SDS011;60508;42.622;25.416;2023-04-26T06:15:52;10.02;;;7.65;;
45077;SDS011;60508;42.622;25.416;2023-04-26T06:18:18;5.18;;;4.20;;
45077;SDS011;60508;42.622;25.416;2023-04-26T06:20:45;16.25;;;5.22;;
45077;SDS011;60508;42.622;25.416;2023-04-26T06:23:12;3.80;;;3.50;;
45077;SDS011;60508;42.622;25.416;2023-04-26T06:25:38;4.88;;;4.47;;
45077;SDS011;60508;42.622;25.416;2023-04-26T06:28:10;5.93;;;4.30;;
45077;SDS011;60508;42.622;25.416;2023-04-26T06:30:36;4.20;;;3.80;;
45077;SDS011;60508;42.622;25.416;2023-04-26T06:33:03;5.63;;;4.38;;
45077;SDS011;60508;42.622;25.416;2023-04-26T06:35:30;4.38;;;3.53;;
45077;SDS011;60508;42.622;25.416;2023-04-26T06:37:56;3.20;;;2.90;;
45077;SDS011;60508;42.622;25.416;2023-04-26T06:40:22;3.70;;;3.40;;
45077;SDS011;60508;42.622;25.416;2023-04-26T06:42:48;4.65;;;3.03;;
45077;SDS011;60508;42.622;25.416;2023-04-26T06:45:15;3.78;;;2.70;;
45077;SDS011;60508;42.622;25.416;2023-04-26T06:47:43;4.95;;;4.45;;
45077;SDS011;60508;42.622;25.416;2023-04-26T06:50:09;8.25;;;6.07;;
45077;SDS011;60508;42.622;25.416;2023-04-26T06:52:35;6.82;;;5.55;;
45077;SDS011;60508;42.622;25.416;2023-04-26T06:55:01;7.63;;;6.25;;
45077;SDS011;60508;42.622;25.416;2023-04-26T06:57:28;9.00;;;7.00;;
45077;SDS011;60508;42.622;25.416;2023-04-26T06:59:54;13.07;;;9.25;;
45077;SDS011;60508;42.622;25.416;2023-04-26T07:02:21;13.25;;;9.57;;
45077;SDS011;60508;42.622;25.416;2023-04-26T07:04:49;5.20;;;4.70;;
45077;SDS011;60508;42.622;25.416;2023-04-26T07:07:14;7.63;;;6.63;;
45077;SDS011;60508;42.622;25.416;2023-04-26T07:09:41;10.95;;;6.82;;
45077;SDS011;60508;42.622;25.416;2023-04-26T07:12:09;8.85;;;7.28;;
45077;SDS011;60508;42.622;25.416;2023-04-26T07:14:36;10.63;;;7.47;;
45077;SDS011;60508;42.622;25.416;2023-04-26T07:17:05;9.77;;;5.30;;
45077;SDS011;60508;42.622;25.416;2023-04-26T07:19:32;7.15;;;5.75;;
45077;SDS011;60508;42.622;25.416;2023-04-26T07:21:58;11.55;;;4.72;;
45077;SDS011;60508;42.622;25.416;2023-04-26T07:24:25;4.40;;;3.42;;
45077;SDS011;60508;42.622;25.416;2023-04-26T07:26:52;7.28;;;4.28;;
45077;SDS011;60508;42.622;25.416;2023-04-26T07:29:17;3.45;;;3.15;;
45077;SDS011;60508;42.622;25.416;2023-04-26T07:31:44;5.88;;;3.30;;
45077;SDS011;60508;42.622;25.416;2023-04-26T07:34:10;4.00;;;3.38;;
45077;SDS011;60508;42.622;25.416;2023-04-26T07:36:36;3.65;;;3.30;;
45077;SDS011;60508;42.622;25.416;2023-04-26T07:39:02;3.50;;;2.90;;
45077;SDS011;60508;42.622;25.416;2023-04-26T07:41:29;5.60;;;3.40;;
45077;SDS011;60508;42.622;25.416;2023-04-26T07:43:57;10.27;;;3.53;;
45077;SDS011;60508;42.622;25.416;2023-04-26T07:46:23;4.20;;;2.80;;
45077;SDS011;60508;42.622;25.416;2023-04-26T07:48:49;8.45;;;2.88;;
45077;SDS011;60508;42.622;25.416;2023-04-26T07:51:16;3.42;;;3.13;;
45077;SDS011;60508;42.622;25.416;2023-04-26T07:53:42;2.42;;;2.25;;
45077;SDS011;60508;42.622;25.416;2023-04-26T07:56:09;5.50;;;3.75;;
45077;SDS011;60508;42.622;25.416;2023-04-26T07:58:35;3.28;;;2.97;;
45077;SDS011;60508;42.622;25.416;2023-04-26T08:01:03;3.53;;;3.17;;
45077;SDS011;60508;42.622;25.416;2023-04-26T08:03:30;5.00;;;3.35;;
45077;SDS011;60508;42.622;25.416;2023-04-26T08:05:56;2.38;;;2.15;;
45077;SDS011;60508;42.622;25.416;2023-04-26T08:08:26;2.97;;;2.78;;
45077;SDS011;60508;42.622;25.416;2023-04-26T08:10:52;6.85;;;2.53;;
45077;SDS011;60508;42.622;25.416;2023-04-26T08:13:18;5.45;;;3.17;;
45077;SDS011;60508;42.622;25.416;2023-04-26T08:15:45;2.88;;;2.67;;
45077;SDS011;60508;42.622;25.416;2023-04-26T08:18:12;2.67;;;2.40;;
45077;SDS011;60508;42.622;25.416;2023-04-26T08:20:45;4.68;;;2.92;;
45077;SDS011;60508;42.622;25.416;2023-04-26T08:23:12;2.63;;;2.42;;
45077;SDS011;60508;42.622;25.416;2023-04-26T08:25:38;3.05;;;2.80;;
45077;SDS011;60508;42.622;25.416;2023-04-26T08:28:05;3.53;;;2.85;;
45077;SDS011;60508;42.622;25.416;2023-04-26T08:30:33;3.25;;;2.60;;
45077;SDS011;60508;42.622;25.416;2023-04-26T08:32:59;3.13;;;2.47;;
45077;SDS011;60508;42.622;25.416;2023-04-26T08:35:25;4.28;;;2.03;;
45077;SDS011;60508;42.622;25.416;2023-04-26T08:37:51;1.77;;;1.67;;
45077;SDS011;60508;42.622;25.416;2023-04-26T08:40:20;2.10;;;1.90;;
45077;SDS011;60508;42.622;25.416;2023-04-26T08:42:48;1.48;;;1.38;;
45077;SDS011;60508;42.622;25.416;2023-04-26T08:45:16;3.80;;;1.70;;
45077;SDS011;60508;42.622;25.416;2023-04-26T08:47:43;3.55;;;1.92;;
45077;SDS011;60508;42.622;25.416;2023-04-26T08:50:13;2.10;;;1.80;;
45077;SDS011;60508;42.622;25.416;2023-04-26T08:52:41;5.07;;;2.00;;
45077;SDS011;60508;42.622;25.416;2023-04-26T08:55:08;6.18;;;1.95;;
45077;SDS011;60508;42.622;25.416;2023-04-26T08:57:35;2.42;;;2.22;;
45077;SDS011;60508;42.622;25.416;2023-04-26T09:00:02;4.03;;;1.80;;
45077;SDS011;60508;42.622;25.416;2023-04-26T09:02:41;3.45;;;2.63;;
45077;SDS011;60508;42.622;25.416;2023-04-26T09:05:11;2.05;;;1.92;;
45077;SDS011;60508;42.622;25.416;2023-04-26T09:07:42;1.60;;;1.50;;
45077;SDS011;60508;42.622;25.416;2023-04-26T09:12:45;2.15;;;1.85;;
45077;SDS011;60508;42.622;25.416;2023-04-26T09:15:12;1.63;;;1.52;;
45077;SDS011;60508;42.622;25.416;2023-04-26T09:17:40;2.00;;;1.80;;
45077;SDS011;60508;42.622;25.416;2023-04-26T09:20:23;2.03;;;1.83;;
45077;SDS011;60508;42.622;25.416;2023-04-26T09:22:53;2.63;;;2.42;;
45077;SDS011;60508;42.622;25.416;2023-04-26T09:25:29;3.40;;;2.17;;
45077;SDS011;60508;42.622;25.416;2023-04-26T09:27:56;2.00;;;1.50;;
45077;SDS011;60508;42.622;25.416;2023-04-26T09:30:23;3.13;;;2.20;;
45077;SDS011;60508;42.622;25.416;2023-04-26T09:32:56;2.38;;;2.17;;
45077;SDS011;60508;42.622;25.416;2023-04-26T09:35:33;12.00;;;5.65;;
45077;SDS011;60508;42.622;25.416;2023-04-26T09:38:16;2.83;;;1.90;;
45077;SDS011;60508;42.622;25.416;2023-04-26T09:40:43;7.03;;;2.92;;
45077;SDS011;60508;42.622;25.416;2023-04-26T09:48:21;2.15;;;1.83;;
45077;SDS011;60508;42.622;25.416;2023-04-26T09:50:48;2.08;;;1.95;;
45077;SDS011;60508;42.622;25.416;2023-04-26T09:53:29;2.30;;;2.10;;
45077;SDS011;60508;42.622;25.416;2023-04-26T09:58:22;2.55;;;2.35;;
45077;SDS011;60508;42.622;25.416;2023-04-26T10:00:49;3.72;;;2.80;;
45077;SDS011;60508;42.622;25.416;2023-04-26T10:03:17;12.25;;;3.30;;
45077;SDS011;60508;42.622;25.416;2023-04-26T10:05:44;3.78;;;3.13;;
45077;SDS011;60508;42.622;25.416;2023-04-26T10:08:10;7.28;;;3.22;;
45077;SDS011;60508;42.622;25.416;2023-04-26T10:10:37;4.13;;;2.90;;
45077;SDS011;60508;42.622;25.416;2023-04-26T10:13:04;5.85;;;4.13;;
45077;SDS011;60508;42.622;25.416;2023-04-26T10:15:30;4.68;;;4.25;;
45077;SDS011;60508;42.622;25.416;2023-04-26T10:17:56;15.32;;;5.45;;
45077;SDS011;60508;42.622;25.416;2023-04-26T10:20:23;6.30;;;5.05;;
45077;SDS011;60508;42.622;25.416;2023-04-26T10:22:54;7.90;;;5.35;;
45077;SDS011;60508;42.622;25.416;2023-04-26T10:25:38;4.28;;;3.88;;
45077;SDS011;60508;42.622;25.416;2023-04-26T10:28:06;3.17;;;2.65;;
45077;SDS011;60508;42.622;25.416;2023-04-26T10:30:34;3.38;;;3.08;;
45077;SDS011;60508;42.622;25.416;2023-04-26T10:33:19;11.23;;;2.67;;
45077;SDS011;60508;42.622;25.416;2023-04-26T10:35:58;2.30;;;2.10;;
45077;SDS011;60508;42.622;25.416;2023-04-26T10:38:30;2.13;;;1.88;;
45077;SDS011;60508;42.622;25.416;2023-04-26T10:41:26;1.95;;;1.65;;
45077;SDS011;60508;42.622;25.416;2023-04-26T10:43:58;1.40;;;1.30;;
45077;SDS011;60508;42.622;25.416;2023-04-26T10:46:32;3.37;;;1.20;;
45077;SDS011;60508;42.622;25.416;2023-04-26T10:49:16;3.45;;;3.15;;
45077;SDS011;60508;42.622;25.416;2023-04-26T10:57:18;1.30;;;1.20;;
45077;SDS011;60508;42.622;25.416;2023-04-26T11:05:37;1.50;;;1.20;;
45077;SDS011;60508;42.622;25.416;2023-04-26T11:08:16;2.15;;;1.25;;
45077;SDS011;60508;42.622;25.416;2023-04-26T11:10:44;1.40;;;1.30;;
45077;SDS011;60508;42.622;25.416;2023-04-26T11:13:21;2.78;;;0.90;;
45077;SDS011;60508;42.622;25.416;2023-04-26T11:15:51;1.38;;;1.27;;
45077;SDS011;60508;42.622;25.416;2023-04-26T11:18:24;3.00;;;1.63;;
45077;SDS011;60508;42.622;25.416;2023-04-26T11:20:50;1.10;;;1.00;;
45077;SDS011;60508;42.622;25.416;2023-04-26T11:23:21;3.38;;;1.33;;
45077;SDS011;60508;42.622;25.416;2023-04-26T11:25:48;1.38;;;1.27;;
45077;SDS011;60508;42.622;25.416;2023-04-26T11:28:14;1.27;;;1.17;;
45077;SDS011;60508;42.622;25.416;2023-04-26T11:30:41;4.45;;;1.15;;
45077;SDS011;60508;42.622;25.416;2023-04-26T11:33:14;1.90;;;1.70;;
45077;SDS011;60508;42.622;25.416;2023-04-26T11:35:46;1.53;;;0.90;;
45077;SDS011;60508;42.622;25.416;2023-04-26T11:38:13;1.58;;;1.48;;
45077;SDS011;60508;42.622;25.416;2023-04-26T11:40:40;1.30;;;1.20;;
45077;SDS011;60508;42.622;25.416;2023-04-26T11:43:06;1.10;;;1.00;;
45077;SDS011;60508;42.622;25.416;2023-04-26T11:45:34;1.95;;;0.98;;
45077;SDS011;60508;42.622;25.416;2023-04-26T11:48:01;3.38;;;1.15;;
45077;SDS011;60508;42.622;25.416;2023-04-26T11:50:36;5.25;;;1.10;;
45077;SDS011;60508;42.622;25.416;2023-04-26T11:53:04;1.90;;;1.20;;
45077;SDS011;60508;42.622;25.416;2023-04-26T11:55:32;1.67;;;0.93;;
45077;SDS011;60508;42.622;25.416;2023-04-26T11:58:00;1.00;;;0.65;;
45077;SDS011;60508;42.622;25.416;2023-04-26T12:00:34;6.28;;;0.80;;
45077;SDS011;60508;42.622;25.416;2023-04-26T12:03:03;1.30;;;1.08;;
45077;SDS011;60508;42.622;25.416;2023-04-26T12:05:35;2.05;;;0.82;;
45077;SDS011;60508;42.622;25.416;2023-04-26T12:08:02;1.40;;;1.25;;
45077;SDS011;60508;42.622;25.416;2023-04-26T12:10:33;1.75;;;0.70;;
45077;SDS011;60508;42.622;25.416;2023-04-26T12:13:01;1.42;;;0.90;;
45077;SDS011;60508;42.622;25.416;2023-04-26T12:15:31;8.65;;;0.82;;
45077;SDS011;60508;42.622;25.416;2023-04-26T12:20:33;2.58;;;0.90;;
45077;SDS011;60508;42.622;25.416;2023-04-26T12:25:38;13.10;;;2.33;;
45077;SDS011;60508;42.622;25.416;2023-04-26T12:28:08;4.38;;;1.40;;
45077;SDS011;60508;42.622;25.416;2023-04-26T12:30:37;0.95;;;0.93;;
45077;SDS011;60508;42.622;25.416;2023-04-26T12:33:03;0.50;;;0.50;;
45077;SDS011;60508;42.622;25.416;2023-04-26T12:35:30;4.18;;;0.75;;
45077;SDS011;60508;42.622;25.416;2023-04-26T12:37:56;0.80;;;0.80;;
45077;SDS011;60508;42.622;25.416;2023-04-26T12:40:26;1.08;;;0.98;;
45077;SDS011;60508;42.622;25.416;2023-04-26T12:42:54;6.13;;;0.70;;
45077;SDS011;60508;42.622;25.416;2023-04-26T12:45:24;4.03;;;1.00;;
45077;SDS011;60508;42.622;25.416;2023-04-26T12:47:52;1.10;;;1.00;;
45077;SDS011;60508;42.622;25.416;2023-04-26T12:50:18;1.02;;;0.85;;
45077;SDS011;60508;42.622;25.416;2023-04-26T12:52:45;2.17;;;0.80;;
45077;SDS011;60508;42.622;25.416;2023-04-26T12:55:12;0.50;;;0.50;;
45077;SDS011;60508;42.622;25.416;2023-04-26T12:57:39;3.75;;;0.77;;
45077;SDS011;60508;42.622;25.416;2023-04-26T13:00:08;1.98;;;0.80;;
45077;SDS011;60508;42.622;25.416;2023-04-26T13:02:36;3.03;;;0.60;;
45077;SDS011;60508;42.622;25.416;2023-04-26T13:05:02;0.68;;;0.68;;
45077;SDS011;60508;42.622;25.416;2023-04-26T13:07:30;1.98;;;0.93;;
45077;SDS011;60508;42.622;25.416;2023-04-26T13:10:00;3.60;;;0.70;;
45077;SDS011;60508;42.622;25.416;2023-04-26T13:12:27;3.75;;;1.02;;
45077;SDS011;60508;42.622;25.416;2023-04-26T13:14:53;3.55;;;0.68;;
45077;SDS011;60508;42.622;25.416;2023-04-26T13:17:21;1.77;;;1.67;;
45077;SDS011;60508;42.622;25.416;2023-04-26T13:19:48;3.72;;;2.03;;
45077;SDS011;60508;42.622;25.416;2023-04-26T13:22:15;4.53;;;2.15;;
45077;SDS011;60508;42.622;25.416;2023-04-26T13:24:41;3.35;;;1.70;;
45077;SDS011;60508;42.622;25.416;2023-04-26T13:27:07;7.30;;;1.60;;
45077;SDS011;60508;42.622;25.416;2023-04-26T13:29:33;3.25;;;2.00;;
45077;SDS011;60508;42.622;25.416;2023-04-26T13:31:59;1.67;;;1.58;;
45077;SDS011;60508;42.622;25.416;2023-04-26T13:34:25;2.15;;;1.40;;
45077;SDS011;60508;42.622;25.416;2023-04-26T13:36:54;7.63;;;1.63;;
45077;SDS011;60508;42.622;25.416;2023-04-26T13:39:25;2.03;;;1.80;;
45077;SDS011;60508;42.622;25.416;2023-04-26T13:41:53;9.15;;;1.77;;
45077;SDS011;60508;42.622;25.416;2023-04-26T13:44:19;4.28;;;1.80;;
45077;SDS011;60508;42.622;25.416;2023-04-26T13:46:45;1.77;;;1.67;;
45077;SDS011;60508;42.622;25.416;2023-04-26T13:49:12;10.25;;;4.10;;
45077;SDS011;60508;42.622;25.416;2023-04-26T13:51:39;4.85;;;1.42;;
45077;SDS011;60508;42.622;25.416;2023-04-26T13:54:05;4.53;;;2.22;;
45077;SDS011;60508;42.622;25.416;2023-04-26T13:56:31;4.50;;;2.35;;
45077;SDS011;60508;42.622;25.416;2023-04-26T13:58:58;1.52;;;1.42;;
45077;SDS011;60508;42.622;25.416;2023-04-26T14:01:29;2.63;;;2.40;;
45077;SDS011;60508;42.622;25.416;2023-04-26T14:03:56;1.75;;;1.65;;
45077;SDS011;60508;42.622;25.416;2023-04-26T14:06:22;3.63;;;1.90;;
45077;SDS011;60508;42.622;25.416;2023-04-26T14:08:48;1.70;;;1.60;;
45077;SDS011;60508;42.622;25.416;2023-04-26T14:11:14;3.50;;;2.13;;
45077;SDS011;60508;42.622;25.416;2023-04-26T14:13:41;5.20;;;1.90;;
45077;SDS011;60508;42.622;25.416;2023-04-26T14:16:07;4.22;;;3.00;;
45077;SDS011;60508;42.622;25.416;2023-04-26T14:18:33;3.55;;;2.63;;
45077;SDS011;60508;42.622;25.416;2023-04-26T14:20:59;7.22;;;3.50;;
45077;SDS011;60508;42.622;25.416;2023-04-26T14:23:25;3.85;;;2.00;;
45077;SDS011;60508;42.622;25.416;2023-04-26T14:25:52;6.40;;;2.17;;
45077;SDS011;60508;42.622;25.416;2023-04-26T14:28:19;5.07;;;2.47;;
45077;SDS011;60508;42.622;25.416;2023-04-26T14:30:45;8.23;;;4.28;;
45077;SDS011;60508;42.622;25.416;2023-04-26T14:33:11;3.00;;;1.60;;
45077;SDS011;60508;42.622;25.416;2023-04-26T14:35:37;10.23;;;5.57;;
45077;SDS011;60508;42.622;25.416;2023-04-26T14:38:03;5.15;;;3.28;;
45077;SDS011;60508;42.622;25.416;2023-04-26T14:40:29;9.27;;;3.28;;
45077;SDS011;60508;42.622;25.416;2023-04-26T14:42:56;4.22;;;2.58;;
45077;SDS011;60508;42.622;25.416;2023-04-26T14:45:24;6.45;;;1.80;;
45077;SDS011;60508;42.622;25.416;2023-04-26T14:47:51;3.75;;;1.33;;
45077;SDS011;60508;42.622;25.416;2023-04-26T14:50:16;1.80;;;1.60;;
45077;SDS011;60508;42.622;25.416;2023-04-26T14:52:44;4.38;;;1.25;;
45077;SDS011;60508;42.622;25.416;2023-04-26T14:55:15;2.05;;;1.27;;
45077;SDS011;60508;42.622;25.416;2023-04-26T14:57:44;3.90;;;1.27;;
45077;SDS011;60508;42.622;25.416;2023-04-26T15:00:10;2.03;;;1.25;;
45077;SDS011;60508;42.622;25.416;2023-04-26T15:02:40;3.45;;;0.88;;
45077;SDS011;60508;42.622;25.416;2023-04-26T15:05:06;3.25;;;1.25;;